Main page
METAR-TAF:

METAR-TAF

Airports :

Palma de Mallorca Airport

Palma de Mallorca, Spain

latitude: 39-33N, longitude: 002-44E, elevation: 4 m

Current weather observation

The report was made 18 minutes ago, at 09:30 UTC
Wind 2 kt from variable directions
Temperature 14°C
Humidity 94%
Pressure 1016 hPa
Visibility 10 km or more
Few clouds at a height of 2000 ft
Scattered clouds at a height of 5000 ft

METAR: LEPA 170930Z VRB02KT 9999 FEW020 SCT050 14/13 Q1016 NOSIG

Time: 10:48 (09:48 UTC)

Forecast

The report was made 4 hours and 48 minutes ago, at 05:00 UTC
Forecast valid from 17 at 06 UTC to 18 at 06 UTC
Wind 3 kt from variable directions
Visibility 10 km or more
Few clouds at a height of 1500 ft
Becoming
from 17 at 08 UTC to 17 at 10 UTC
Wind 10 kt from the Northeast
Becoming
from 17 at 18 UTC to 17 at 20 UTC
Wind 5 kt from the Northeast

TAF: LEPA 170500Z 1706/1806 VRB03KT 9999 FEW015 TX19/1712Z TN10/1706Z BECMG 1708/1710 05010KT BECMG 1718/1720 05005KT

Weather observations and forecasts of more than 4000 airports (METAR and TAF reports).

The available stations are represented by yellow and red dots on the map.

Hover mouse over dot to see the name of the station.

Then click to see weather observations and forecasts.

To change the map : click on the green buttons with a black cross to zoom in, on the green button with a dash to zoom out, or on the green arrows for adjacent maps.


METAR-TAF: